createdAt,value
2022-09-20T00:04:13.757Z,101047
2022-09-20T00:10:04.554Z,101043
2022-09-20T00:15:57.371Z,101040
2022-09-20T00:21:49.944Z,101039
2022-09-20T00:27:40.544Z,101035
2022-09-20T00:33:30.300Z,101025
2022-09-20T00:39:19.782Z,101022
2022-09-20T00:45:13.519Z,101029
2022-09-20T00:51:05.637Z,101033
2022-09-20T00:56:57.106Z,101041
2022-09-20T01:02:50.666Z,101040
2022-09-20T01:08:41.276Z,101047
2022-09-20T01:14:33.535Z,101039
2022-09-20T01:20:26.261Z,101030
2022-09-20T01:26:19.434Z,101028
2022-09-20T01:32:11.787Z,101024
2022-09-20T01:38:04.726Z,101025
2022-09-20T01:43:57.214Z,101030
2022-09-20T01:49:48.669Z,101029
2022-09-20T01:55:41.511Z,101032
2022-09-20T02:01:33.810Z,101038
2022-09-20T02:07:26.699Z,101042
2022-09-20T02:13:19.212Z,101040
2022-09-20T02:19:13.677Z,101039
2022-09-20T02:25:06.556Z,101034
2022-09-20T02:30:57.578Z,101033
2022-09-20T02:36:48.361Z,101028
2022-09-20T02:42:40.398Z,101030
2022-09-20T02:48:32.035Z,101029
2022-09-20T02:54:24.488Z,101027
2022-09-20T03:00:16.625Z,101024
2022-09-20T03:06:08.958Z,101021
2022-09-20T03:12:00.540Z,101022
2022-09-20T03:17:53.034Z,101017
2022-09-20T03:23:45.841Z,101013
2022-09-20T03:29:37.634Z,101013
2022-09-20T03:35:30.507Z,101022
2022-09-20T03:41:22.444Z,101027
2022-09-20T09:00:56.841Z,101162
2022-09-20T09:06:53.276Z,101162
2022-09-20T09:12:56.497Z,101169
2022-09-20T09:19:15.784Z,101161
2022-09-20T09:25:07.958Z,101158
2022-09-20T09:31:05.936Z,101159
2022-09-20T09:37:19.102Z,101151
2022-09-20T09:43:20.302Z,101149
2022-09-20T09:49:28.762Z,101152
2022-09-20T09:55:35.115Z,101153
2022-09-20T10:01:37.658Z,101155
2022-09-20T10:07:31.358Z,101145
2022-09-20T10:13:31.419Z,101149
2022-09-20T10:19:51.668Z,101147
2022-09-20T10:25:57.690Z,101140
2022-09-20T10:32:22.181Z,101143
2022-09-20T10:38:33.183Z,101132
2022-09-20T10:44:24.296Z,101141
2022-09-20T11:02:39.677Z,101154
2022-09-20T11:14:56.829Z,101164
2022-09-20T11:20:58.886Z,101161
2022-09-20T11:26:55.406Z,101176
2022-09-20T11:32:49.424Z,101178
2022-09-20T11:38:58.648Z,101174
2022-09-20T11:45:32.233Z,101175
2022-09-20T11:51:43.455Z,101173
2022-09-20T11:57:41.103Z,101179
2022-09-20T12:03:38.950Z,101174
2022-09-20T12:09:31.485Z,101167
2022-09-20T12:15:32.899Z,101167
2022-09-20T12:21:25.051Z,101168
2022-09-20T12:27:18.934Z,101176
2022-09-20T12:33:14.698Z,101184
2022-09-20T12:40:15.906Z,101181
2022-09-20T12:46:14.050Z,101180
2022-09-20T12:52:04.003Z,101182
2022-09-20T12:57:54.204Z,101181
2022-09-20T13:03:44.799Z,101187
2022-09-20T13:09:35.483Z,101186
2022-09-20T13:15:27.368Z,101184
2022-09-20T13:21:18.109Z,101182
2022-09-20T13:27:08.833Z,101177
2022-09-20T13:32:59.276Z,101186
2022-09-20T13:38:49.865Z,101186
2022-09-20T13:44:41.034Z,101184
2022-09-20T13:50:31.819Z,101179
2022-09-20T13:56:22.130Z,101176
2022-09-20T14:02:13.475Z,101176
2022-09-20T14:08:04.405Z,101177
2022-09-20T14:13:54.947Z,101165
2022-09-20T14:19:45.338Z,101168
2022-09-20T14:25:35.526Z,101163
2022-09-20T14:31:26.511Z,101168
2022-09-20T14:37:17.847Z,101166
2022-09-20T14:43:09.704Z,101161
2022-09-20T14:48:59.537Z,101162
2022-09-20T14:54:50.868Z,101159
2022-09-20T15:00:42.715Z,101158
2022-09-20T15:06:34.221Z,101155
2022-09-20T15:12:24.926Z,101154
2022-09-20T15:18:15.000Z,101158
2022-09-20T15:24:05.814Z,101163
2022-09-20T15:30:01.610Z,101161
2022-09-20T15:35:51.481Z,101160
2022-09-20T15:41:40.447Z,101163
2022-09-20T15:47:31.558Z,101148
2022-09-20T15:53:22.686Z,101151
2022-09-20T15:59:15.208Z,101158
2022-09-20T16:05:04.392Z,101151
2022-09-20T16:10:53.601Z,101147
2022-09-20T16:16:44.123Z,101153
2022-09-20T16:22:34.133Z,101154
2022-09-20T16:28:23.583Z,101158
2022-09-20T16:34:12.596Z,101159
2022-09-20T16:40:04.437Z,101166
2022-09-20T16:45:55.815Z,101168
2022-09-20T16:51:46.826Z,101164
2022-09-20T16:57:37.423Z,101177
2022-09-20T17:03:27.632Z,101179
2022-09-20T17:09:19.045Z,101181
2022-09-20T17:15:12.696Z,101188
2022-09-20T17:21:08.266Z,101197
2022-09-20T17:26:59.061Z,101191
2022-09-20T17:32:50.519Z,101199
2022-09-20T17:38:41.048Z,101202
2022-09-20T17:44:31.341Z,101210
2022-09-20T17:50:23.108Z,101211
2022-09-20T17:56:13.095Z,101213
2022-09-20T18:02:03.502Z,101222
2022-09-20T18:07:54.638Z,101231
2022-09-20T18:13:46.263Z,101239
2022-09-20T18:19:36.767Z,101239
2022-09-20T18:25:27.448Z,101249
2022-09-20T18:31:17.613Z,101256
2022-09-20T18:37:14.926Z,101257
2022-09-20T18:43:08.440Z,101268
2022-09-20T18:49:04.877Z,101267
2022-09-20T18:55:29.814Z,101274
2022-09-20T19:01:52.079Z,101278
2022-09-20T19:07:48.905Z,101285
2022-09-20T19:13:43.440Z,101285
2022-09-20T19:19:46.844Z,101289
2022-09-20T19:25:44.322Z,101301
2022-09-20T19:31:40.842Z,101299
2022-09-20T19:37:39.659Z,101306
2022-09-20T19:43:32.672Z,101311
2022-09-20T19:49:23.791Z,101322
2022-09-20T19:55:16.783Z,101325
2022-09-20T20:08:26.514Z,101338
2022-09-20T20:21:35.076Z,101347
2022-09-20T20:28:13.060Z,101347
2022-09-20T20:34:48.731Z,101357
2022-09-20T20:41:26.614Z,101365
2022-09-20T20:47:45.951Z,101370
2022-09-20T21:08:38.733Z,101380
2022-09-20T21:14:58.491Z,101387
2022-09-20T21:21:18.094Z,101393
2022-09-20T21:27:30.243Z,101398
2022-09-20T21:40:22.838Z,101397
2022-09-20T21:54:47.253Z,101403
2022-09-20T22:01:38.848Z,101410
2022-09-20T22:08:53.906Z,101407
2022-09-20T22:16:48.464Z,101412
2022-09-20T23:29:36.651Z,101418
